createdAt,value
2019-04-26T00:00:00.052Z,10.05
2019-04-26T00:03:00.082Z,10.63
2019-04-26T00:05:54.547Z,10.23
2019-04-26T00:08:53.521Z,9.95
2019-04-26T00:11:58.082Z,10.50
2019-04-26T00:15:26.069Z,10.43
2019-04-26T00:18:21.074Z,9.60
2019-04-26T00:21:16.140Z,10.48
2019-04-26T00:24:11.742Z,10.58
2019-04-26T00:27:06.533Z,10.68
2019-04-26T00:30:00.713Z,10.95
2019-04-26T00:32:55.659Z,10.70
2019-04-26T00:35:50.163Z,10.10
2019-04-26T00:38:44.846Z,10.58
2019-04-26T00:41:40.611Z,10.93
2019-04-26T00:44:35.784Z,10.82
2019-04-26T00:47:32.273Z,10.15
2019-04-26T00:50:27.405Z,11.35
2019-04-26T00:53:23.790Z,11.28
2019-04-26T00:56:18.806Z,10.72
2019-04-26T00:59:15.100Z,11.08
2019-04-26T01:02:18.877Z,11.18
2019-04-26T01:05:14.574Z,11.25
2019-04-26T01:08:11.566Z,11.95
2019-04-26T01:11:06.558Z,11.33
2019-04-26T01:14:01.129Z,12.55
2019-04-26T01:16:55.450Z,14.25
2019-04-26T01:19:51.010Z,15.48
2019-04-26T01:22:50.334Z,16.97
2019-04-26T01:25:57.315Z,16.55
2019-04-26T01:29:01.684Z,17.85
2019-04-26T01:32:09.482Z,17.52
2019-04-26T01:35:05.028Z,18.52
2019-04-26T01:38:00.140Z,19.40
2019-04-26T01:40:57.701Z,18.27
2019-04-26T01:44:09.297Z,18.67
2019-04-26T01:47:03.962Z,19.65
2019-04-26T01:49:59.281Z,20.15
2019-04-26T01:52:54.461Z,20.23
2019-04-26T01:55:49.235Z,20.80
2019-04-26T01:58:44.032Z,20.88
2019-04-26T02:02:15.400Z,19.62
2019-04-26T02:05:15.589Z,19.73
2019-04-26T02:08:09.836Z,20.75
2019-04-26T02:11:04.682Z,21.20
2019-04-26T02:14:00.522Z,20.80
2019-04-26T02:16:55.353Z,21.05
2019-04-26T02:19:50.204Z,20.32
2019-04-26T02:23:03.247Z,20.68
2019-04-26T02:25:59.117Z,21.25
2019-04-26T02:28:54.010Z,21.45
2019-04-26T02:31:50.905Z,20.37
2019-04-26T02:34:45.618Z,20.25
2019-04-26T02:37:42.382Z,20.43
2019-04-26T02:40:36.989Z,21.50
2019-04-26T02:43:32.116Z,20.37
2019-04-26T02:46:37.966Z,20.95
2019-04-26T02:49:42.304Z,19.80
2019-04-26T02:52:46.849Z,21.52
2019-04-26T02:56:11.586Z,19.25
2019-04-26T02:59:25.847Z,21.30
2019-04-26T03:02:30.145Z,21.52
2019-04-26T03:05:25.111Z,19.73
2019-04-26T03:08:22.900Z,19.85
2019-04-26T03:11:22.742Z,19.80
2019-04-26T03:14:37.075Z,20.62
2019-04-26T03:17:52.210Z,20.92
2019-04-26T03:20:48.759Z,20.90
2019-04-26T03:24:07.892Z,20.05
2019-04-26T03:28:08.850Z,21.02
2019-04-26T03:31:33.951Z,20.12
2019-04-26T03:34:53.071Z,21.82
2019-04-26T03:38:33.817Z,21.15
2019-04-26T03:42:04.932Z,22.82
2019-04-26T03:45:40.362Z,21.62
2019-04-26T03:49:01.098Z,22.62
2019-04-26T03:52:26.032Z,23.25
2019-04-26T03:55:55.715Z,20.95
2019-04-26T03:59:17.368Z,22.22
2019-04-26T04:02:23.956Z,19.73
2019-04-26T04:05:32.724Z,19.85
2019-04-26T04:08:32.270Z,20.82
2019-04-26T04:11:32.564Z,20.45
2019-04-26T04:14:59.596Z,19.30
2019-04-26T04:18:03.159Z,20.00
2019-04-26T04:21:31.941Z,19.00
2019-04-26T04:24:39.712Z,18.25
2019-04-26T04:27:55.686Z,18.45
2019-04-26T04:31:09.958Z,18.40
2019-04-26T04:34:15.801Z,18.37
2019-04-26T04:37:12.539Z,18.05
2019-04-26T04:40:15.617Z,17.05
2019-04-26T04:43:36.466Z,17.70
2019-04-26T04:47:25.900Z,17.45
2019-04-26T04:50:39.118Z,17.70
2019-04-26T04:54:02.655Z,18.05
2019-04-26T04:57:23.540Z,17.45
2019-04-26T05:00:51.338Z,17.65
2019-04-26T05:04:23.564Z,17.77
2019-04-26T05:07:27.240Z,18.20
2019-04-26T05:10:30.001Z,18.07
2019-04-26T05:13:48.664Z,17.27
2019-04-26T05:17:43.491Z,18.17
2019-04-26T05:20:53.434Z,17.92
2019-04-26T05:24:35.614Z,17.37
2019-04-26T05:28:02.829Z,18.12
2019-04-26T05:31:38.038Z,16.82
2019-04-26T05:34:50.658Z,17.62
2019-04-26T05:38:18.711Z,17.62
2019-04-26T05:41:42.366Z,18.00
2019-04-26T05:45:32.989Z,17.05
2019-04-26T05:48:53.642Z,17.10
2019-04-26T05:52:31.791Z,16.62
2019-04-26T05:56:03.333Z,18.17
2019-04-26T05:59:23.367Z,19.12
2019-04-26T06:03:07.419Z,17.80
2019-04-26T06:06:25.189Z,17.32
2019-04-26T06:10:26.397Z,17.73
2019-04-26T06:13:55.749Z,17.95
2019-04-26T06:17:35.220Z,17.12
2019-04-26T06:20:47.475Z,17.82
2019-04-26T06:24:27.931Z,17.32
2019-04-26T06:28:05.418Z,17.42
2019-04-26T06:31:22.612Z,16.60
2019-04-26T06:34:26.802Z,19.02
2019-04-26T06:37:36.731Z,17.60
2019-04-26T06:41:13.361Z,18.10
2019-04-26T06:44:13.416Z,17.98
2019-04-26T06:47:30.315Z,19.40
2019-04-26T06:50:35.993Z,19.00
2019-04-26T06:54:13.193Z,20.50
2019-04-26T06:58:12.965Z,19.23
2019-04-26T07:01:31.105Z,19.42
2019-04-26T07:05:02.792Z,20.37
2019-04-26T07:08:41.114Z,19.85
2019-04-26T07:12:39.634Z,21.07
2019-04-26T07:16:22.406Z,21.12
2019-04-26T07:19:59.662Z,21.93
2019-04-26T07:23:37.833Z,20.65
2019-04-26T07:27:20.540Z,20.37
2019-04-26T07:30:54.852Z,21.73
2019-04-26T07:34:34.082Z,20.25
2019-04-26T07:38:22.804Z,19.70
2019-04-26T07:41:56.976Z,19.60
2019-04-26T07:45:43.021Z,20.30
2019-04-26T07:49:10.626Z,19.05
2019-04-26T07:52:59.176Z,19.00
2019-04-26T07:56:09.325Z,19.77
2019-04-26T07:59:48.898Z,19.50
2019-04-26T08:03:09.024Z,20.08
2019-04-26T08:06:16.408Z,18.42
2019-04-26T08:09:26.237Z,17.50
2019-04-26T08:12:21.199Z,17.95
2019-04-26T08:15:37.998Z,17.65
2019-04-26T08:18:51.007Z,17.73
2019-04-26T08:21:52.733Z,17.35
2019-04-26T08:24:54.049Z,16.87
2019-04-26T08:27:54.770Z,17.52
2019-04-26T08:30:57.623Z,16.15
2019-04-26T08:34:03.776Z,16.40
2019-04-26T08:37:18.963Z,16.05
2019-04-26T08:40:26.372Z,16.82
2019-04-26T08:43:50.325Z,16.40
2019-04-26T08:47:20.975Z,16.05
2019-04-26T08:50:25.739Z,16.82
2019-04-26T08:53:25.605Z,16.23
2019-04-26T08:56:25.667Z,15.50
2019-04-26T08:59:29.858Z,15.03
2019-04-26T09:03:10.764Z,14.60
2019-04-26T09:06:18.216Z,14.30
2019-04-26T09:09:19.816Z,15.15
2019-04-26T09:12:23.227Z,15.10
2019-04-26T09:15:19.626Z,14.87
2019-04-26T09:18:16.879Z,14.58
2019-04-26T09:21:17.461Z,15.03
2019-04-26T09:24:33.672Z,16.65
2019-04-26T09:27:33.759Z,17.73
2019-04-26T09:30:56.422Z,16.67
2019-04-26T09:33:57.415Z,15.95
2019-04-26T09:36:56.104Z,17.10
2019-04-26T09:39:51.826Z,17.48
2019-04-26T09:42:53.634Z,17.30
2019-04-26T09:46:11.716Z,18.27
2019-04-26T09:49:25.126Z,17.55
2019-04-26T09:52:24.708Z,17.82
2019-04-26T09:55:19.947Z,17.87
2019-04-26T09:58:20.921Z,16.82
2019-04-26T10:01:19.744Z,17.07
2019-04-26T10:04:17.247Z,16.30
2019-04-26T10:07:14.618Z,16.67
2019-04-26T10:10:22.631Z,16.10
2019-04-26T10:13:28.743Z,15.95
2019-04-26T10:16:37.660Z,15.98
2019-04-26T10:19:43.995Z,15.95
2019-04-26T10:22:45.640Z,15.98
2019-04-26T10:25:47.413Z,15.28
2019-04-26T10:28:50.724Z,15.15
2019-04-26T10:31:47.546Z,15.18
2019-04-26T10:34:50.439Z,15.10
2019-04-26T10:37:52.708Z,15.98
2019-04-26T10:40:52.176Z,16.02
2019-04-26T10:43:49.724Z,15.50
2019-04-26T10:46:55.421Z,15.10
2019-04-26T10:49:54.355Z,15.00
2019-04-26T10:52:59.326Z,15.13
2019-04-26T10:56:13.751Z,15.10
2019-04-26T10:59:44.027Z,14.85
2019-04-26T11:02:40.779Z,14.75
2019-04-26T11:05:36.505Z,14.35
2019-04-26T11:08:32.035Z,14.63
2019-04-26T11:11:28.234Z,15.10
2019-04-26T11:14:25.070Z,14.53
2019-04-26T11:17:20.979Z,15.43
2019-04-26T11:20:17.810Z,16.27
2019-04-26T11:23:15.429Z,17.20
2019-04-26T11:26:13.554Z,16.02
2019-04-26T11:29:14.538Z,15.68
2019-04-26T11:39:36.377Z,16.55
2019-04-26T11:42:57.255Z,15.85
2019-04-26T11:46:21.768Z,15.80
2019-04-26T11:49:20.857Z,16.20
2019-04-26T11:52:19.436Z,16.23
2019-04-26T11:55:39.736Z,16.75
2019-04-26T11:58:56.891Z,16.20
2019-04-26T12:01:54.024Z,15.72
2019-04-26T12:05:18.992Z,15.63
2019-04-26T12:08:23.170Z,16.07
2019-04-26T12:11:26.161Z,16.30
2019-04-26T12:14:20.532Z,15.83
2019-04-26T12:17:21.457Z,15.75
2019-04-26T12:20:26.962Z,17.05
2019-04-26T12:23:24.442Z,16.23
2019-04-26T12:26:23.194Z,15.68
2019-04-26T12:29:33.420Z,16.37
2019-04-26T12:32:33.150Z,15.98
2019-04-26T12:35:33.579Z,15.88
2019-04-26T12:38:35.294Z,16.60
2019-04-26T12:41:40.434Z,16.23
2019-04-26T12:44:51.196Z,15.63
2019-04-26T12:48:12.333Z,16.80
2019-04-26T12:54:50.443Z,16.23
2019-04-26T12:57:47.754Z,17.10
2019-04-26T13:00:54.384Z,15.98
2019-04-26T13:04:06.682Z,17.02
2019-04-26T13:07:23.580Z,16.35
2019-04-26T13:10:41.498Z,16.55
2019-04-26T13:13:46.722Z,16.57
2019-04-26T13:16:51.968Z,15.88
2019-04-26T13:19:54.001Z,16.52
2019-04-26T13:22:55.889Z,16.50
2019-04-26T13:25:55.506Z,16.23
2019-04-26T13:28:52.617Z,16.95
2019-04-26T13:31:46.637Z,15.68
2019-04-26T13:34:45.511Z,17.25
2019-04-26T13:37:44.700Z,15.65
2019-04-26T13:40:43.861Z,17.27
2019-04-26T13:43:40.389Z,16.30
2019-04-26T13:46:57.827Z,16.48
2019-04-26T13:50:00.679Z,18.10
2019-04-26T13:52:58.444Z,17.48
2019-04-26T13:55:53.740Z,17.60
2019-04-26T13:58:54.174Z,16.67
2019-04-26T14:01:48.954Z,17.00
2019-04-26T14:04:44.297Z,18.52
2019-04-26T14:07:39.456Z,17.30
2019-04-26T14:10:36.240Z,17.15
2019-04-26T14:13:31.120Z,17.40
2019-04-26T14:16:27.593Z,17.50
2019-04-26T14:19:22.917Z,17.32
2019-04-26T14:22:21.242Z,18.30
2019-04-26T14:25:18.478Z,17.62
2019-04-26T14:28:14.207Z,18.48
2019-04-26T14:31:12.193Z,17.73
2019-04-26T14:34:08.582Z,17.65
2019-04-26T14:37:06.708Z,18.32
2019-04-26T14:40:15.968Z,18.37
2019-04-26T14:43:06.843Z,17.90
2019-04-26T14:46:01.727Z,18.77
2019-04-26T14:49:05.600Z,17.70
2019-04-26T14:52:02.208Z,17.10
2019-04-26T14:55:01.446Z,17.35
2019-04-26T14:57:58.338Z,18.32
2019-04-26T15:00:55.846Z,19.05
2019-04-26T15:04:13.021Z,18.35
2019-04-26T15:07:08.412Z,18.85
2019-04-26T15:10:06.793Z,17.30
2019-04-26T15:13:14.327Z,19.02
2019-04-26T15:15:56.716Z,19.32
2019-04-26T15:18:52.569Z,19.00
2019-04-26T15:21:48.774Z,18.67
2019-04-26T15:24:44.925Z,18.23
2019-04-26T15:27:42.110Z,17.98
2019-04-26T15:30:45.988Z,18.50
2019-04-26T15:33:36.422Z,18.55
2019-04-26T15:36:32.395Z,17.52
2019-04-26T15:39:50.332Z,17.95
2019-04-26T15:43:14.334Z,17.40
2019-04-26T15:46:31.779Z,17.27
2019-04-26T15:49:50.009Z,17.30
2019-04-26T15:52:48.350Z,18.07
2019-04-26T15:55:45.837Z,17.77
2019-04-26T15:58:47.197Z,17.23
2019-04-26T16:01:41.823Z,18.57
2019-04-26T16:04:36.654Z,17.80
2019-04-26T16:07:36.473Z,18.07
2019-04-26T16:10:36.797Z,18.17
2019-04-26T16:13:32.285Z,18.25
2019-04-26T16:16:34.539Z,18.02
2019-04-26T16:19:35.565Z,18.10
2019-04-26T16:22:36.899Z,17.40
2019-04-26T16:25:39.296Z,18.48
2019-04-26T16:28:52.383Z,17.77
2019-04-26T16:32:09.914Z,17.10
2019-04-26T16:35:07.211Z,17.87
2019-04-26T16:38:22.955Z,18.12
2019-04-26T16:41:21.815Z,17.17
2019-04-26T16:44:19.275Z,18.55
2019-04-26T16:47:17.393Z,18.45
2019-04-26T16:50:22.141Z,17.27
2019-04-26T16:53:36.880Z,18.73
2019-04-26T16:56:09.484Z,17.60
2019-04-26T16:59:07.523Z,17.90
2019-04-26T17:02:09.229Z,18.30
2019-04-26T17:05:19.185Z,18.17
2019-04-26T17:08:10.143Z,18.37
2019-04-26T17:11:04.751Z,17.32
2019-04-26T17:14:04.800Z,17.35
2019-04-26T17:17:00.096Z,17.82
2019-04-26T17:20:00.390Z,18.37
2019-04-26T17:23:23.933Z,17.15
2019-04-26T17:26:33.697Z,17.10
2019-04-26T17:29:29.899Z,16.55
2019-04-26T17:32:26.843Z,16.82
2019-04-26T17:35:22.861Z,17.25
2019-04-26T17:38:22.353Z,17.32
2019-04-26T17:41:17.494Z,17.37
2019-04-26T17:44:13.365Z,16.77
2019-04-26T17:47:10.647Z,16.40
2019-04-26T17:50:06.473Z,16.82
2019-04-26T17:53:06.612Z,17.67
2019-04-26T17:56:01.359Z,16.77
2019-04-26T17:58:58.151Z,17.25
2019-04-26T18:02:00.828Z,18.42
2019-04-26T18:05:00.523Z,18.50
2019-04-26T18:07:58.439Z,18.55
2019-04-26T18:10:51.812Z,17.40
2019-04-26T18:13:51.167Z,16.75
2019-04-26T18:16:49.652Z,17.05
2019-04-26T18:20:07.967Z,16.77
2019-04-26T18:23:10.114Z,16.85
2019-04-26T18:26:06.916Z,17.00
2019-04-26T18:29:03.859Z,15.95
2019-04-26T18:32:03.433Z,17.02
2019-04-26T18:34:56.600Z,15.80
2019-04-26T18:37:53.711Z,16.30
2019-04-26T18:41:00.902Z,14.90
2019-04-26T18:43:49.430Z,16.60
2019-04-26T18:46:59.944Z,15.65
2019-04-26T18:49:58.282Z,15.53
2019-04-26T18:53:20.699Z,16.05
2019-04-26T18:56:16.241Z,16.35
2019-04-26T18:59:15.297Z,15.00
2019-04-26T19:02:11.431Z,15.05
2019-04-26T19:05:05.588Z,15.40
2019-04-26T19:08:00.716Z,15.18
2019-04-26T19:11:00.791Z,14.83
2019-04-26T19:14:15.444Z,15.20
2019-04-26T19:17:22.026Z,15.58
2019-04-26T19:20:38.295Z,15.23
2019-04-26T19:23:34.001Z,14.15
2019-04-26T19:26:34.421Z,14.73
2019-04-26T19:29:32.741Z,15.58
2019-04-26T19:32:24.936Z,14.75
2019-04-26T19:35:21.950Z,15.28
2019-04-26T19:38:18.160Z,15.48
2019-04-26T19:41:17.324Z,14.80
2019-04-26T19:44:14.689Z,15.00
2019-04-26T19:47:26.436Z,14.90
2019-04-26T19:50:50.198Z,14.60
2019-04-26T19:54:02.944Z,14.85
2019-04-26T19:57:10.207Z,15.25
2019-04-26T20:00:08.402Z,14.53
2019-04-26T20:03:08.624Z,14.73
2019-04-26T20:06:07.157Z,15.05
2019-04-26T20:09:05.730Z,14.70
2019-04-26T20:12:03.309Z,14.60
2019-04-26T20:14:58.707Z,14.68
2019-04-26T20:17:59.513Z,15.28
2019-04-26T20:20:52.583Z,15.20
2019-04-26T20:23:47.654Z,14.53
2019-04-26T20:26:44.671Z,14.10
2019-04-26T20:29:47.293Z,15.50
2019-04-26T20:32:44.017Z,15.43
2019-04-26T20:35:37.663Z,15.23
2019-04-26T20:38:36.198Z,14.87
2019-04-26T20:41:29.006Z,14.53
2019-04-26T20:44:28.363Z,14.25
2019-04-26T20:47:21.697Z,13.75
2019-04-26T20:50:17.691Z,14.75
2019-04-26T20:53:13.290Z,14.93
2019-04-26T20:56:11.803Z,14.33
2019-04-26T20:59:06.634Z,13.83
2019-04-26T21:02:07.861Z,15.43
2019-04-26T21:05:02.022Z,14.40
2019-04-26T21:07:58.558Z,14.18
2019-04-26T21:10:56.056Z,14.05
2019-04-26T21:13:52.887Z,15.00
2019-04-26T21:16:50.575Z,14.85
2019-04-26T21:19:49.932Z,13.75
2019-04-26T21:22:47.853Z,14.07
2019-04-26T21:25:57.351Z,14.20
2019-04-26T21:29:08.061Z,13.68
2019-04-26T21:32:20.462Z,14.07
2019-04-26T21:35:20.426Z,13.98
2019-04-26T21:38:25.680Z,14.68
2019-04-26T21:41:26.780Z,13.68
2019-04-26T21:44:25.072Z,13.70
2019-04-26T21:47:23.188Z,14.20
2019-04-26T21:50:20.544Z,14.18
2019-04-26T21:53:17.551Z,14.90
2019-04-26T21:56:14.577Z,15.10
2019-04-26T21:59:13.824Z,15.03
2019-04-26T22:02:13.917Z,14.25
2019-04-26T22:05:11.648Z,14.75
2019-04-26T22:08:10.485Z,15.05
2019-04-26T22:11:09.404Z,15.88
2019-04-26T22:14:19.932Z,15.23
2019-04-26T22:17:34.358Z,14.45
2019-04-26T22:20:37.416Z,15.38
2019-04-26T22:23:41.160Z,16.05
2019-04-26T22:26:38.074Z,15.93
2019-04-26T22:29:33.230Z,15.10
2019-04-26T22:32:31.201Z,15.55
2019-04-26T22:35:30.032Z,15.45
2019-04-26T22:38:27.641Z,16.40
2019-04-26T22:41:28.537Z,15.78
2019-04-26T22:44:31.448Z,15.30
2019-04-26T22:47:42.568Z,15.10
2019-04-26T22:50:39.558Z,14.95
2019-04-26T22:53:35.416Z,15.18
2019-04-26T22:56:36.755Z,15.65
2019-04-26T22:59:29.734Z,16.27
2019-04-26T23:02:27.634Z,16.10
2019-04-26T23:05:23.065Z,16.10
2019-04-26T23:08:19.296Z,15.85
2019-04-26T23:11:15.201Z,16.50
2019-04-26T23:14:35.676Z,15.70
2019-04-26T23:17:51.507Z,16.50
2019-04-26T23:21:03.449Z,16.15
2019-04-26T23:23:59.797Z,16.32
2019-04-26T23:26:54.905Z,17.25
2019-04-26T23:29:55.081Z,16.00
2019-04-26T23:32:48.609Z,16.52
2019-04-26T23:35:45.789Z,17.57
2019-04-26T23:38:39.839Z,17.42
2019-04-26T23:41:37.579Z,17.25
2019-04-26T23:44:33.090Z,17.23
2019-04-26T23:47:31.951Z,17.20
2019-04-26T23:50:29.391Z,16.82
2019-04-26T23:53:24.134Z,16.37
2019-04-26T23:56:23.537Z,17.17
2019-04-26T23:59:20.850Z,17.27
